sensor_id;sensor_type;location;lat;lon;timestamp;P1;durP1;ratioP1;P2;durP2;ratioP2
4786;SDS011;62338;48.832;9.422;2023-03-21T00:01:26;7.50;;;5.30;;
4786;SDS011;62338;48.832;9.422;2023-03-21T00:03:28;9.67;;;5.30;;
4786;SDS011;62338;48.832;9.422;2023-03-21T00:05:32;8.70;;;5.33;;
4786;SDS011;62338;48.832;9.422;2023-03-21T00:07:33;16.00;;;5.40;;
4786;SDS011;62338;48.832;9.422;2023-03-21T00:09:35;8.80;;;5.40;;
4786;SDS011;62338;48.832;9.422;2023-03-21T00:11:37;10.73;;;5.30;;
4786;SDS011;62338;48.832;9.422;2023-03-21T00:13:39;7.67;;;5.43;;
4786;SDS011;62338;48.832;9.422;2023-03-21T00:15:43;9.67;;;5.90;;
4786;SDS011;62338;48.832;9.422;2023-03-21T00:18:04;11.40;;;6.03;;
4786;SDS011;62338;48.832;9.422;2023-03-21T00:20:11;8.87;;;5.97;;
4786;SDS011;62338;48.832;9.422;2023-03-21T00:22:14;10.47;;;5.57;;
4786;SDS011;62338;48.832;9.422;2023-03-21T00:24:16;10.83;;;6.17;;
4786;SDS011;62338;48.832;9.422;2023-03-21T00:26:18;15.30;;;7.40;;
4786;SDS011;62338;48.832;9.422;2023-03-21T00:28:20;12.30;;;7.53;;
4786;SDS011;62338;48.832;9.422;2023-03-21T00:30:22;23.10;;;10.40;;
4786;SDS011;62338;48.832;9.422;2023-03-21T00:32:24;26.93;;;12.03;;
4786;SDS011;62338;48.832;9.422;2023-03-21T00:34:26;21.60;;;10.60;;
4786;SDS011;62338;48.832;9.422;2023-03-21T00:36:48;16.27;;;9.10;;
4786;SDS011;62338;48.832;9.422;2023-03-21T00:38:50;22.13;;;11.20;;
4786;SDS011;62338;48.832;9.422;2023-03-21T00:40:52;21.33;;;12.70;;
4786;SDS011;62338;48.832;9.422;2023-03-21T00:42:54;14.17;;;8.53;;
4786;SDS011;62338;48.832;9.422;2023-03-21T00:44:56;17.70;;;9.10;;
4786;SDS011;62338;48.832;9.422;2023-03-21T00:46:58;22.77;;;10.50;;
4786;SDS011;62338;48.832;9.422;2023-03-21T00:49:08;15.50;;;9.50;;
4786;SDS011;62338;48.832;9.422;2023-03-21T00:51:10;20.30;;;10.37;;
4786;SDS011;62338;48.832;9.422;2023-03-21T00:53:22;17.60;;;11.17;;
4786;SDS011;62338;48.832;9.422;2023-03-21T00:55:24;22.23;;;12.20;;
4786;SDS011;62338;48.832;9.422;2023-03-21T00:57:25;41.20;;;14.37;;
4786;SDS011;62338;48.832;9.422;2023-03-21T00:59:39;41.00;;;19.67;;
4786;SDS011;62338;48.832;9.422;2023-03-21T01:01:40;47.60;;;22.33;;
4786;SDS011;62338;48.832;9.422;2023-03-21T01:03:42;56.57;;;29.50;;
4786;SDS011;62338;48.832;9.422;2023-03-21T01:05:51;46.10;;;24.27;;
4786;SDS011;62338;48.832;9.422;2023-03-21T01:08:05;45.07;;;23.07;;
4786;SDS011;62338;48.832;9.422;2023-03-21T01:10:24;44.33;;;22.87;;
4786;SDS011;62338;48.832;9.422;2023-03-21T01:12:25;58.80;;;29.07;;
4786;SDS011;62338;48.832;9.422;2023-03-21T01:14:27;49.40;;;23.43;;
4786;SDS011;62338;48.832;9.422;2023-03-21T01:16:29;41.27;;;21.43;;
4786;SDS011;62338;48.832;9.422;2023-03-21T01:18:32;44.80;;;23.23;;
4786;SDS011;62338;48.832;9.422;2023-03-21T01:20:36;41.20;;;20.97;;
4786;SDS011;62338;48.832;9.422;2023-03-21T01:22:37;35.83;;;17.20;;
4786;SDS011;62338;48.832;9.422;2023-03-21T01:24:39;24.93;;;14.50;;
4786;SDS011;62338;48.832;9.422;2023-03-21T01:26:54;19.00;;;11.87;;
4786;SDS011;62338;48.832;9.422;2023-03-21T01:28:55;22.73;;;11.80;;
4786;SDS011;62338;48.832;9.422;2023-03-21T01:30:59;22.20;;;9.80;;
4786;SDS011;62338;48.832;9.422;2023-03-21T01:33:01;20.33;;;11.10;;
4786;SDS011;62338;48.832;9.422;2023-03-21T01:35:03;20.40;;;11.83;;
4786;SDS011;62338;48.832;9.422;2023-03-21T01:37:05;18.33;;;11.30;;
4786;SDS011;62338;48.832;9.422;2023-03-21T01:39:07;15.07;;;9.17;;
4786;SDS011;62338;48.832;9.422;2023-03-21T01:41:15;18.17;;;10.40;;
4786;SDS011;62338;48.832;9.422;2023-03-21T01:43:37;11.07;;;6.17;;
4786;SDS011;62338;48.832;9.422;2023-03-21T01:48:06;11.97;;;7.90;;
4786;SDS011;62338;48.832;9.422;2023-03-21T01:50:08;15.20;;;9.30;;
4786;SDS011;62338;48.832;9.422;2023-03-21T01:52:11;21.07;;;11.37;;
4786;SDS011;62338;48.832;9.422;2023-03-21T01:54:31;23.03;;;11.30;;
4786;SDS011;62338;48.832;9.422;2023-03-21T01:56:37;17.57;;;9.13;;
4786;SDS011;62338;48.832;9.422;2023-03-21T01:58:40;18.50;;;9.77;;
4786;SDS011;62338;48.832;9.422;2023-03-21T02:00:44;12.97;;;8.53;;
4786;SDS011;62338;48.832;9.422;2023-03-21T02:04:56;16.60;;;8.50;;
4786;SDS011;62338;48.832;9.422;2023-03-21T02:07:13;13.53;;;8.60;;
4786;SDS011;62338;48.832;9.422;2023-03-21T02:09:21;12.50;;;7.07;;
4786;SDS011;62338;48.832;9.422;2023-03-21T02:11:26;12.40;;;7.57;;
4786;SDS011;62338;48.832;9.422;2023-03-21T02:13:30;13.37;;;8.00;;
4786;SDS011;62338;48.832;9.422;2023-03-21T02:15:32;9.73;;;7.17;;
4786;SDS011;62338;48.832;9.422;2023-03-21T02:18:41;14.63;;;7.47;;
4786;SDS011;62338;48.832;9.422;2023-03-21T02:22:39;14.47;;;7.53;;
4786;SDS011;62338;48.832;9.422;2023-03-21T02:27:22;16.90;;;6.53;;
4786;SDS011;62338;48.832;9.422;2023-03-21T02:29:36;11.63;;;7.47;;
4786;SDS011;62338;48.832;9.422;2023-03-21T02:39:01;10.97;;;7.30;;
4786;SDS011;62338;48.832;9.422;2023-03-21T02:43:54;14.70;;;7.57;;
4786;SDS011;62338;48.832;9.422;2023-03-21T02:46:13;16.37;;;9.70;;
4786;SDS011;62338;48.832;9.422;2023-03-21T02:51:22;18.57;;;10.70;;
4786;SDS011;62338;48.832;9.422;2023-03-21T02:53:27;18.20;;;10.20;;
4786;SDS011;62338;48.832;9.422;2023-03-21T02:55:34;12.53;;;8.50;;
4786;SDS011;62338;48.832;9.422;2023-03-21T02:57:37;11.80;;;7.70;;
4786;SDS011;62338;48.832;9.422;2023-03-21T02:59:44;14.27;;;8.40;;
4786;SDS011;62338;48.832;9.422;2023-03-21T03:01:55;15.47;;;8.83;;
4786;SDS011;62338;48.832;9.422;2023-03-21T03:03:58;11.73;;;8.23;;
4786;SDS011;62338;48.832;9.422;2023-03-21T03:06:01;12.70;;;8.30;;
4786;SDS011;62338;48.832;9.422;2023-03-21T03:08:28;14.37;;;8.80;;
4786;SDS011;62338;48.832;9.422;2023-03-21T03:13:37;15.30;;;7.90;;
4786;SDS011;62338;48.832;9.422;2023-03-21T03:17:57;12.70;;;7.17;;
4786;SDS011;62338;48.832;9.422;2023-03-21T03:20:12;12.30;;;7.83;;
4786;SDS011;62338;48.832;9.422;2023-03-21T03:22:29;9.63;;;7.00;;
4786;SDS011;62338;48.832;9.422;2023-03-21T03:24:41;10.80;;;6.77;;
4786;SDS011;62338;48.832;9.422;2023-03-21T03:27:28;14.63;;;7.27;;
4786;SDS011;62338;48.832;9.422;2023-03-21T03:29:36;12.03;;;6.93;;
4786;SDS011;62338;48.832;9.422;2023-03-21T03:31:56;11.83;;;6.83;;
4786;SDS011;62338;48.832;9.422;2023-03-21T03:34:04;10.63;;;7.00;;
4786;SDS011;62338;48.832;9.422;2023-03-21T03:36:10;9.67;;;6.30;;
4786;SDS011;62338;48.832;9.422;2023-03-21T03:38:32;12.17;;;5.83;;
4786;SDS011;62338;48.832;9.422;2023-03-21T03:40:39;10.73;;;6.40;;
4786;SDS011;62338;48.832;9.422;2023-03-21T03:42:52;10.07;;;5.40;;
4786;SDS011;62338;48.832;9.422;2023-03-21T03:44:57;7.00;;;4.97;;
4786;SDS011;62338;48.832;9.422;2023-03-21T03:47:05;7.70;;;5.40;;
4786;SDS011;62338;48.832;9.422;2023-03-21T03:49:19;9.33;;;5.63;;
4786;SDS011;62338;48.832;9.422;2023-03-21T03:51:26;6.63;;;3.93;;
4786;SDS011;62338;48.832;9.422;2023-03-21T03:53:36;7.03;;;4.47;;
4786;SDS011;62338;48.832;9.422;2023-03-21T03:55:45;7.77;;;3.73;;
4786;SDS011;62338;48.832;9.422;2023-03-21T03:57:48;7.70;;;3.83;;
4786;SDS011;62338;48.832;9.422;2023-03-21T03:59:50;6.63;;;3.63;;
4786;SDS011;62338;48.832;9.422;2023-03-21T04:01:51;6.43;;;3.57;;
4786;SDS011;62338;48.832;9.422;2023-03-21T04:03:53;4.53;;;3.40;;
4786;SDS011;62338;48.832;9.422;2023-03-21T04:06:12;8.70;;;4.07;;
4786;SDS011;62338;48.832;9.422;2023-03-21T04:08:15;4.90;;;3.70;;
4786;SDS011;62338;48.832;9.422;2023-03-21T04:10:17;5.57;;;3.50;;
4786;SDS011;62338;48.832;9.422;2023-03-21T04:12:20;7.63;;;3.90;;
4786;SDS011;62338;48.832;9.422;2023-03-21T04:14:22;6.13;;;3.30;;
4786;SDS011;62338;48.832;9.422;2023-03-21T04:16:33;6.63;;;3.70;;
4786;SDS011;62338;48.832;9.422;2023-03-21T04:18:36;4.90;;;3.27;;
4786;SDS011;62338;48.832;9.422;2023-03-21T04:20:39;6.00;;;3.23;;
4786;SDS011;62338;48.832;9.422;2023-03-21T04:22:41;8.67;;;3.37;;
4786;SDS011;62338;48.832;9.422;2023-03-21T04:24:42;4.70;;;3.10;;
4786;SDS011;62338;48.832;9.422;2023-03-21T04:26:45;4.37;;;3.60;;
4786;SDS011;62338;48.832;9.422;2023-03-21T04:28:47;6.13;;;3.70;;
4786;SDS011;62338;48.832;9.422;2023-03-21T04:30:49;6.87;;;3.40;;
4786;SDS011;62338;48.832;9.422;2023-03-21T04:33:03;6.03;;;3.73;;
4786;SDS011;62338;48.832;9.422;2023-03-21T04:35:06;5.63;;;3.43;;
4786;SDS011;62338;48.832;9.422;2023-03-21T04:37:09;4.97;;;3.60;;
4786;SDS011;62338;48.832;9.422;2023-03-21T04:39:13;5.63;;;3.30;;
4786;SDS011;62338;48.832;9.422;2023-03-21T04:41:15;4.67;;;3.20;;
4786;SDS011;62338;48.832;9.422;2023-03-21T04:43:17;5.70;;;3.57;;
4786;SDS011;62338;48.832;9.422;2023-03-21T04:45:19;5.73;;;3.13;;
4786;SDS011;62338;48.832;9.422;2023-03-21T04:47:21;4.93;;;3.13;;
4786;SDS011;62338;48.832;9.422;2023-03-21T04:49:22;7.23;;;3.20;;
4786;SDS011;62338;48.832;9.422;2023-03-21T04:51:24;7.63;;;3.40;;
4786;SDS011;62338;48.832;9.422;2023-03-21T04:53:26;5.00;;;3.30;;
4786;SDS011;62338;48.832;9.422;2023-03-21T04:55:28;4.60;;;3.23;;
4786;SDS011;62338;48.832;9.422;2023-03-21T04:57:31;5.50;;;3.60;;
4786;SDS011;62338;48.832;9.422;2023-03-21T04:59:33;6.20;;;3.20;;
4786;SDS011;62338;48.832;9.422;2023-03-21T05:01:35;6.80;;;2.80;;
4786;SDS011;62338;48.832;9.422;2023-03-21T05:03:37;4.23;;;3.23;;
4786;SDS011;62338;48.832;9.422;2023-03-21T05:05:40;8.20;;;3.20;;
4786;SDS011;62338;48.832;9.422;2023-03-21T05:07:42;6.23;;;3.03;;
4786;SDS011;62338;48.832;9.422;2023-03-21T05:09:44;6.70;;;3.77;;
4786;SDS011;62338;48.832;9.422;2023-03-21T05:11:45;4.80;;;3.20;;
4786;SDS011;62338;48.832;9.422;2023-03-21T05:13:47;5.10;;;3.23;;
4786;SDS011;62338;48.832;9.422;2023-03-21T05:15:49;5.60;;;3.20;;
4786;SDS011;62338;48.832;9.422;2023-03-21T05:17:51;5.13;;;3.30;;
4786;SDS011;62338;48.832;9.422;2023-03-21T05:19:53;5.53;;;2.90;;
4786;SDS011;62338;48.832;9.422;2023-03-21T05:21:56;6.10;;;3.47;;
4786;SDS011;62338;48.832;9.422;2023-03-21T05:23:59;6.40;;;3.43;;
4786;SDS011;62338;48.832;9.422;2023-03-21T05:26:05;6.40;;;3.53;;
4786;SDS011;62338;48.832;9.422;2023-03-21T05:28:07;6.07;;;3.30;;
4786;SDS011;62338;48.832;9.422;2023-03-21T05:30:10;5.33;;;3.40;;
4786;SDS011;62338;48.832;9.422;2023-03-21T05:32:16;6.07;;;3.33;;
4786;SDS011;62338;48.832;9.422;2023-03-21T05:34:18;6.70;;;3.43;;
4786;SDS011;62338;48.832;9.422;2023-03-21T05:36:20;4.70;;;3.10;;
4786;SDS011;62338;48.832;9.422;2023-03-21T05:38:22;6.07;;;3.47;;
4786;SDS011;62338;48.832;9.422;2023-03-21T05:40:25;6.90;;;3.50;;
4786;SDS011;62338;48.832;9.422;2023-03-21T05:42:27;4.77;;;2.40;;
4786;SDS011;62338;48.832;9.422;2023-03-21T05:44:29;5.03;;;3.00;;
4786;SDS011;62338;48.832;9.422;2023-03-21T05:46:31;4.90;;;3.33;;
4786;SDS011;62338;48.832;9.422;2023-03-21T05:48:33;7.23;;;2.63;;
4786;SDS011;62338;48.832;9.422;2023-03-21T05:50:35;4.70;;;3.00;;
4786;SDS011;62338;48.832;9.422;2023-03-21T05:52:39;5.73;;;3.57;;
4786;SDS011;62338;48.832;9.422;2023-03-21T05:54:41;5.03;;;3.17;;
4786;SDS011;62338;48.832;9.422;2023-03-21T05:56:43;6.07;;;3.00;;
4786;SDS011;62338;48.832;9.422;2023-03-21T05:58:44;4.73;;;3.00;;
4786;SDS011;62338;48.832;9.422;2023-03-21T06:00:46;4.40;;;3.30;;
4786;SDS011;62338;48.832;9.422;2023-03-21T06:02:48;4.43;;;2.73;;
4786;SDS011;62338;48.832;9.422;2023-03-21T06:04:50;5.50;;;3.20;;
4786;SDS011;62338;48.832;9.422;2023-03-21T06:06:52;5.57;;;2.87;;
4786;SDS011;62338;48.832;9.422;2023-03-21T06:08:54;6.10;;;3.33;;
4786;SDS011;62338;48.832;9.422;2023-03-21T06:10:56;4.30;;;2.73;;
4786;SDS011;62338;48.832;9.422;2023-03-21T06:12:58;6.63;;;2.80;;
4786;SDS011;62338;48.832;9.422;2023-03-21T06:15:00;3.90;;;2.60;;
4786;SDS011;62338;48.832;9.422;2023-03-21T06:17:02;5.27;;;3.00;;
4786;SDS011;62338;48.832;9.422;2023-03-21T06:19:03;5.10;;;2.17;;
4786;SDS011;62338;48.832;9.422;2023-03-21T06:21:05;5.27;;;3.30;;
4786;SDS011;62338;48.832;9.422;2023-03-21T06:23:07;4.60;;;2.80;;
4786;SDS011;62338;48.832;9.422;2023-03-21T06:25:09;4.43;;;2.53;;
4786;SDS011;62338;48.832;9.422;2023-03-21T06:27:11;7.20;;;2.40;;
4786;SDS011;62338;48.832;9.422;2023-03-21T06:29:13;4.43;;;3.17;;
4786;SDS011;62338;48.832;9.422;2023-03-21T06:31:15;4.20;;;2.53;;
4786;SDS011;62338;48.832;9.422;2023-03-21T06:33:17;4.57;;;3.00;;
4786;SDS011;62338;48.832;9.422;2023-03-21T06:35:19;4.70;;;3.07;;
4786;SDS011;62338;48.832;9.422;2023-03-21T06:37:21;6.70;;;3.27;;
4786;SDS011;62338;48.832;9.422;2023-03-21T06:39:23;4.87;;;2.73;;
4786;SDS011;62338;48.832;9.422;2023-03-21T06:41:25;4.50;;;2.83;;
4786;SDS011;62338;48.832;9.422;2023-03-21T06:43:27;6.30;;;3.13;;
4786;SDS011;62338;48.832;9.422;2023-03-21T06:45:29;4.27;;;2.70;;
4786;SDS011;62338;48.832;9.422;2023-03-21T06:47:31;6.73;;;3.07;;
4786;SDS011;62338;48.832;9.422;2023-03-21T06:49:33;7.10;;;2.83;;
4786;SDS011;62338;48.832;9.422;2023-03-21T06:51:34;4.60;;;2.67;;
4786;SDS011;62338;48.832;9.422;2023-03-21T06:53:37;4.20;;;3.20;;
4786;SDS011;62338;48.832;9.422;2023-03-21T06:55:41;3.90;;;2.70;;
4786;SDS011;62338;48.832;9.422;2023-03-21T06:57:43;5.40;;;3.20;;
4786;SDS011;62338;48.832;9.422;2023-03-21T06:59:45;4.37;;;3.03;;
4786;SDS011;62338;48.832;9.422;2023-03-21T07:01:47;6.83;;;3.63;;
4786;SDS011;62338;48.832;9.422;2023-03-21T07:03:49;3.97;;;2.70;;
4786;SDS011;62338;48.832;9.422;2023-03-21T07:05:52;6.77;;;2.80;;
4786;SDS011;62338;48.832;9.422;2023-03-21T07:07:53;6.47;;;3.67;;
4786;SDS011;62338;48.832;9.422;2023-03-21T07:09:55;5.53;;;3.30;;
4786;SDS011;62338;48.832;9.422;2023-03-21T07:11:57;4.63;;;3.00;;
4786;SDS011;62338;48.832;9.422;2023-03-21T07:13:59;5.40;;;3.00;;
4786;SDS011;62338;48.832;9.422;2023-03-21T07:16:00;5.47;;;3.17;;
4786;SDS011;62338;48.832;9.422;2023-03-21T07:18:03;4.13;;;2.80;;
4786;SDS011;62338;48.832;9.422;2023-03-21T07:20:05;5.37;;;2.63;;
4786;SDS011;62338;48.832;9.422;2023-03-21T07:22:12;6.17;;;3.77;;
4786;SDS011;62338;48.832;9.422;2023-03-21T07:24:14;5.57;;;2.90;;
4786;SDS011;62338;48.832;9.422;2023-03-21T07:26:16;4.43;;;2.77;;
4786;SDS011;62338;48.832;9.422;2023-03-21T07:28:19;4.57;;;3.23;;
4786;SDS011;62338;48.832;9.422;2023-03-21T07:30:21;5.67;;;3.17;;
4786;SDS011;62338;48.832;9.422;2023-03-21T07:32:23;5.47;;;3.10;;
4786;SDS011;62338;48.832;9.422;2023-03-21T07:34:30;8.87;;;3.30;;
4786;SDS011;62338;48.832;9.422;2023-03-21T07:36:33;5.57;;;2.97;;
4786;SDS011;62338;48.832;9.422;2023-03-21T07:38:35;3.77;;;2.70;;
4786;SDS011;62338;48.832;9.422;2023-03-21T07:40:36;7.63;;;2.80;;
4786;SDS011;62338;48.832;9.422;2023-03-21T07:42:39;4.70;;;2.50;;
4786;SDS011;62338;48.832;9.422;2023-03-21T07:44:41;3.67;;;2.30;;
4786;SDS011;62338;48.832;9.422;2023-03-21T07:46:43;7.40;;;2.60;;
4786;SDS011;62338;48.832;9.422;2023-03-21T07:48:45;3.93;;;2.40;;
4786;SDS011;62338;48.832;9.422;2023-03-21T07:50:47;3.80;;;2.50;;
4786;SDS011;62338;48.832;9.422;2023-03-21T07:52:49;4.77;;;2.70;;
4786;SDS011;62338;48.832;9.422;2023-03-21T07:54:51;4.50;;;2.60;;
4786;SDS011;62338;48.832;9.422;2023-03-21T07:56:53;5.43;;;2.70;;
4786;SDS011;62338;48.832;9.422;2023-03-21T07:58:55;4.40;;;2.77;;
4786;SDS011;62338;48.832;9.422;2023-03-21T08:00:57;4.60;;;2.50;;
4786;SDS011;62338;48.832;9.422;2023-03-21T08:02:59;4.80;;;2.20;;
4786;SDS011;62338;48.832;9.422;2023-03-21T08:05:01;4.63;;;2.53;;
4786;SDS011;62338;48.832;9.422;2023-03-21T08:07:04;6.20;;;2.90;;
4786;SDS011;62338;48.832;9.422;2023-03-21T08:09:06;5.70;;;2.90;;
4786;SDS011;62338;48.832;9.422;2023-03-21T08:11:07;4.57;;;2.80;;
4786;SDS011;62338;48.832;9.422;2023-03-21T08:13:11;4.20;;;2.30;;
4786;SDS011;62338;48.832;9.422;2023-03-21T08:15:13;4.27;;;2.50;;
4786;SDS011;62338;48.832;9.422;2023-03-21T08:17:16;7.33;;;2.50;;
4786;SDS011;62338;48.832;9.422;2023-03-21T08:19:18;4.00;;;2.30;;
4786;SDS011;62338;48.832;9.422;2023-03-21T08:21:21;5.00;;;2.50;;
4786;SDS011;62338;48.832;9.422;2023-03-21T08:23:23;5.90;;;3.90;;
4786;SDS011;62338;48.832;9.422;2023-03-21T08:25:26;4.37;;;2.40;;
4786;SDS011;62338;48.832;9.422;2023-03-21T08:27:28;5.63;;;2.87;;
4786;SDS011;62338;48.832;9.422;2023-03-21T08:29:29;5.20;;;2.73;;
4786;SDS011;62338;48.832;9.422;2023-03-21T08:31:31;5.53;;;2.20;;
4786;SDS011;62338;48.832;9.422;2023-03-21T08:33:33;6.57;;;2.10;;
4786;SDS011;62338;48.832;9.422;2023-03-21T08:35:34;7.13;;;2.50;;
4786;SDS011;62338;48.832;9.422;2023-03-21T08:37:40;3.87;;;2.20;;
4786;SDS011;62338;48.832;9.422;2023-03-21T08:39:42;4.73;;;2.40;;
4786;SDS011;62338;48.832;9.422;2023-03-21T08:41:44;9.20;;;2.60;;
4786;SDS011;62338;48.832;9.422;2023-03-21T08:43:47;5.90;;;2.53;;
4786;SDS011;62338;48.832;9.422;2023-03-21T08:45:49;5.73;;;2.40;;
4786;SDS011;62338;48.832;9.422;2023-03-21T08:47:50;7.60;;;4.20;;
4786;SDS011;62338;48.832;9.422;2023-03-21T08:49:53;6.83;;;3.73;;
4786;SDS011;62338;48.832;9.422;2023-03-21T08:51:55;7.03;;;3.43;;
4786;SDS011;62338;48.832;9.422;2023-03-21T08:53:56;5.23;;;3.20;;
4786;SDS011;62338;48.832;9.422;2023-03-21T08:55:58;6.23;;;3.33;;
4786;SDS011;62338;48.832;9.422;2023-03-21T08:58:00;6.33;;;3.37;;
4786;SDS011;62338;48.832;9.422;2023-03-21T09:00:05;7.43;;;2.60;;
4786;SDS011;62338;48.832;9.422;2023-03-21T09:02:15;5.53;;;2.60;;
4786;SDS011;62338;48.832;9.422;2023-03-21T09:04:17;4.37;;;2.13;;
4786;SDS011;62338;48.832;9.422;2023-03-21T09:06:20;5.60;;;2.60;;
4786;SDS011;62338;48.832;9.422;2023-03-21T09:08:24;4.00;;;2.27;;
4786;SDS011;62338;48.832;9.422;2023-03-21T09:10:27;5.40;;;2.77;;
4786;SDS011;62338;48.832;9.422;2023-03-21T09:12:29;4.10;;;2.33;;
4786;SDS011;62338;48.832;9.422;2023-03-21T09:14:30;4.17;;;2.20;;
4786;SDS011;62338;48.832;9.422;2023-03-21T09:16:33;11.33;;;2.70;;
4786;SDS011;62338;48.832;9.422;2023-03-21T09:18:35;4.80;;;3.00;;
4786;SDS011;62338;48.832;9.422;2023-03-21T09:20:47;5.33;;;2.10;;
4786;SDS011;62338;48.832;9.422;2023-03-21T09:22:50;10.27;;;2.90;;
4786;SDS011;62338;48.832;9.422;2023-03-21T09:24:53;5.10;;;2.70;;
4786;SDS011;62338;48.832;9.422;2023-03-21T09:26:55;5.13;;;3.00;;
4786;SDS011;62338;48.832;9.422;2023-03-21T09:28:58;6.00;;;2.90;;
4786;SDS011;62338;48.832;9.422;2023-03-21T09:31:00;4.80;;;2.63;;
4786;SDS011;62338;48.832;9.422;2023-03-21T09:33:06;5.47;;;2.50;;
4786;SDS011;62338;48.832;9.422;2023-03-21T09:35:09;6.20;;;3.13;;
4786;SDS011;62338;48.832;9.422;2023-03-21T09:37:12;6.93;;;2.70;;
4786;SDS011;62338;48.832;9.422;2023-03-21T09:39:15;6.30;;;2.90;;
4786;SDS011;62338;48.832;9.422;2023-03-21T09:41:30;5.20;;;2.90;;
4786;SDS011;62338;48.832;9.422;2023-03-21T09:46:10;4.33;;;2.17;;
4786;SDS011;62338;48.832;9.422;2023-03-21T09:48:39;5.20;;;2.40;;
4786;SDS011;62338;48.832;9.422;2023-03-21T09:50:57;5.00;;;2.73;;
4786;SDS011;62338;48.832;9.422;2023-03-21T09:53:02;4.10;;;2.50;;
4786;SDS011;62338;48.832;9.422;2023-03-21T09:55:14;5.30;;;2.47;;
4786;SDS011;62338;48.832;9.422;2023-03-21T09:59:34;5.80;;;2.70;;
4786;SDS011;62338;48.832;9.422;2023-03-21T10:01:38;5.60;;;2.10;;
4786;SDS011;62338;48.832;9.422;2023-03-21T10:03:45;5.60;;;2.63;;
4786;SDS011;62338;48.832;9.422;2023-03-21T10:05:47;5.60;;;3.40;;
4786;SDS011;62338;48.832;9.422;2023-03-21T10:07:52;7.00;;;2.63;;
4786;SDS011;62338;48.832;9.422;2023-03-21T10:09:58;5.23;;;2.70;;
4786;SDS011;62338;48.832;9.422;2023-03-21T10:12:05;4.97;;;2.50;;
4786;SDS011;62338;48.832;9.422;2023-03-21T10:14:32;5.03;;;2.50;;
4786;SDS011;62338;48.832;9.422;2023-03-21T10:16:57;5.47;;;2.93;;
4786;SDS011;62338;48.832;9.422;2023-03-21T10:19:05;4.57;;;2.10;;
4786;SDS011;62338;48.832;9.422;2023-03-21T10:21:15;4.93;;;2.57;;
4786;SDS011;62338;48.832;9.422;2023-03-21T10:23:47;4.47;;;2.40;;
4786;SDS011;62338;48.832;9.422;2023-03-21T10:25:53;5.40;;;2.40;;
4786;SDS011;62338;48.832;9.422;2023-03-21T10:27:58;4.70;;;2.77;;
4786;SDS011;62338;48.832;9.422;2023-03-21T10:30:02;4.93;;;2.40;;
4786;SDS011;62338;48.832;9.422;2023-03-21T10:32:11;4.23;;;2.30;;
4786;SDS011;62338;48.832;9.422;2023-03-21T10:34:17;6.77;;;2.90;;
4786;SDS011;62338;48.832;9.422;2023-03-21T10:36:25;4.30;;;2.60;;
4786;SDS011;62338;48.832;9.422;2023-03-21T10:38:30;4.43;;;2.40;;
4786;SDS011;62338;48.832;9.422;2023-03-21T10:40:32;4.80;;;2.10;;
4786;SDS011;62338;48.832;9.422;2023-03-21T10:42:35;4.60;;;2.30;;
4786;SDS011;62338;48.832;9.422;2023-03-21T10:44:37;5.93;;;2.40;;
4786;SDS011;62338;48.832;9.422;2023-03-21T10:46:55;4.47;;;2.23;;
4786;SDS011;62338;48.832;9.422;2023-03-21T10:49:03;6.53;;;2.80;;
4786;SDS011;62338;48.832;9.422;2023-03-21T10:51:08;3.70;;;2.03;;
4786;SDS011;62338;48.832;9.422;2023-03-21T10:53:17;7.30;;;2.20;;
4786;SDS011;62338;48.832;9.422;2023-03-21T10:55:32;4.53;;;1.80;;
4786;SDS011;62338;48.832;9.422;2023-03-21T10:57:34;8.20;;;2.00;;
4786;SDS011;62338;48.832;9.422;2023-03-21T10:59:38;4.53;;;2.00;;
4786;SDS011;62338;48.832;9.422;2023-03-21T11:01:54;4.50;;;2.03;;
4786;SDS011;62338;48.832;9.422;2023-03-21T11:03:58;5.00;;;2.30;;
4786;SDS011;62338;48.832;9.422;2023-03-21T11:06:07;4.67;;;2.33;;
4786;SDS011;62338;48.832;9.422;2023-03-21T11:08:22;4.60;;;2.43;;
4786;SDS011;62338;48.832;9.422;2023-03-21T11:10:31;9.30;;;2.40;;
4786;SDS011;62338;48.832;9.422;2023-03-21T11:12:39;5.00;;;2.27;;
4786;SDS011;62338;48.832;9.422;2023-03-21T11:14:42;5.17;;;2.30;;
4786;SDS011;62338;48.832;9.422;2023-03-21T11:16:46;5.00;;;2.10;;
4786;SDS011;62338;48.832;9.422;2023-03-21T11:18:50;5.87;;;2.43;;
4786;SDS011;62338;48.832;9.422;2023-03-21T11:20:54;3.80;;;1.80;;
4786;SDS011;62338;48.832;9.422;2023-03-21T11:22:58;5.10;;;2.00;;
4786;SDS011;62338;48.832;9.422;2023-03-21T11:25:04;4.67;;;1.87;;
4786;SDS011;62338;48.832;9.422;2023-03-21T11:27:09;3.97;;;1.60;;
4786;SDS011;62338;48.832;9.422;2023-03-21T11:31:42;3.57;;;1.90;;
4786;SDS011;62338;48.832;9.422;2023-03-21T11:33:52;4.17;;;2.00;;
4786;SDS011;62338;48.832;9.422;2023-03-21T11:36:10;5.00;;;2.30;;
4786;SDS011;62338;48.832;9.422;2023-03-21T11:38:26;3.77;;;1.90;;
4786;SDS011;62338;48.832;9.422;2023-03-21T11:40:38;4.33;;;1.90;;
4786;SDS011;62338;48.832;9.422;2023-03-21T11:43:05;3.70;;;1.90;;
4786;SDS011;62338;48.832;9.422;2023-03-21T11:47:22;4.27;;;1.70;;
4786;SDS011;62338;48.832;9.422;2023-03-21T11:49:24;4.23;;;1.90;;
4786;SDS011;62338;48.832;9.422;2023-03-21T11:51:40;4.80;;;2.17;;
4786;SDS011;62338;48.832;9.422;2023-03-21T11:56:22;4.10;;;1.87;;
4786;SDS011;62338;48.832;9.422;2023-03-21T11:58:40;4.37;;;2.20;;
4786;SDS011;62338;48.832;9.422;2023-03-21T12:00:58;4.30;;;1.97;;
4786;SDS011;62338;48.832;9.422;2023-03-21T12:05:52;4.03;;;1.83;;
4786;SDS011;62338;48.832;9.422;2023-03-21T12:21:46;7.53;;;2.83;;
4786;SDS011;62338;48.832;9.422;2023-03-21T12:24:21;4.83;;;2.67;;
4786;SDS011;62338;48.832;9.422;2023-03-21T12:26:28;5.77;;;2.53;;
4786;SDS011;62338;48.832;9.422;2023-03-21T12:30:50;8.20;;;2.70;;
4786;SDS011;62338;48.832;9.422;2023-03-21T12:35:17;5.27;;;2.60;;
4786;SDS011;62338;48.832;9.422;2023-03-21T12:39:42;4.33;;;2.10;;
4786;SDS011;62338;48.832;9.422;2023-03-21T12:44:28;5.73;;;2.63;;
4786;SDS011;62338;48.832;9.422;2023-03-21T12:50:52;4.67;;;2.00;;
4786;SDS011;62338;48.832;9.422;2023-03-21T12:52:57;4.97;;;2.13;;
4786;SDS011;62338;48.832;9.422;2023-03-21T12:55:09;4.60;;;2.30;;
4786;SDS011;62338;48.832;9.422;2023-03-21T12:57:30;5.53;;;2.10;;
4786;SDS011;62338;48.832;9.422;2023-03-21T12:59:39;4.73;;;1.90;;
4786;SDS011;62338;48.832;9.422;2023-03-21T13:01:49;4.93;;;2.10;;
4786;SDS011;62338;48.832;9.422;2023-03-21T13:04:20;4.73;;;1.90;;
4786;SDS011;62338;48.832;9.422;2023-03-21T13:06:33;4.30;;;1.97;;
4786;SDS011;62338;48.832;9.422;2023-03-21T13:08:45;6.30;;;2.23;;
4786;SDS011;62338;48.832;9.422;2023-03-21T13:11:06;6.90;;;2.30;;
4786;SDS011;62338;48.832;9.422;2023-03-21T13:13:17;7.10;;;2.50;;
4786;SDS011;62338;48.832;9.422;2023-03-21T13:17:44;4.80;;;2.50;;
4786;SDS011;62338;48.832;9.422;2023-03-21T13:22:29;4.97;;;2.20;;
4786;SDS011;62338;48.832;9.422;2023-03-21T13:26:36;7.00;;;3.03;;
4786;SDS011;62338;48.832;9.422;2023-03-21T13:28:39;5.17;;;2.80;;
4786;SDS011;62338;48.832;9.422;2023-03-21T13:30:42;7.43;;;2.30;;
4786;SDS011;62338;48.832;9.422;2023-03-21T13:32:45;4.93;;;2.83;;
4786;SDS011;62338;48.832;9.422;2023-03-21T13:34:53;7.27;;;2.20;;
4786;SDS011;62338;48.832;9.422;2023-03-21T13:36:59;6.70;;;2.60;;
4786;SDS011;62338;48.832;9.422;2023-03-21T13:39:02;6.83;;;2.60;;
4786;SDS011;62338;48.832;9.422;2023-03-21T13:55:14;4.80;;;2.10;;
4786;SDS011;62338;48.832;9.422;2023-03-21T13:57:20;5.27;;;2.10;;
4786;SDS011;62338;48.832;9.422;2023-03-21T13:59:42;4.73;;;2.37;;
4786;SDS011;62338;48.832;9.422;2023-03-21T14:04:15;4.60;;;1.70;;
4786;SDS011;62338;48.832;9.422;2023-03-21T14:06:20;4.93;;;2.10;;
4786;SDS011;62338;48.832;9.422;2023-03-21T14:08:23;5.40;;;2.60;;
4786;SDS011;62338;48.832;9.422;2023-03-21T14:10:38;8.90;;;2.33;;
4786;SDS011;62338;48.832;9.422;2023-03-21T14:12:45;5.33;;;2.20;;
4786;SDS011;62338;48.832;9.422;2023-03-21T14:14:49;12.03;;;2.30;;
4786;SDS011;62338;48.832;9.422;2023-03-21T14:17:11;5.50;;;2.20;;
4786;SDS011;62338;48.832;9.422;2023-03-21T14:19:30;5.13;;;2.20;;
4786;SDS011;62338;48.832;9.422;2023-03-21T14:21:34;4.60;;;2.07;;